createdAt,value
2023-05-07T00:01:50.882Z,1.55
2023-05-07T00:04:54.314Z,2.15
2023-05-07T00:07:59.640Z,1.20
2023-05-07T00:11:23.176Z,1.27
2023-05-07T00:14:26.888Z,1.48
2023-05-07T00:17:29.958Z,1.90
2023-05-07T00:20:34.420Z,1.30
2023-05-07T00:23:39.209Z,1.60
2023-05-07T00:26:43.644Z,1.27
2023-05-07T00:29:46.724Z,1.33
2023-05-07T00:32:49.968Z,1.33
2023-05-07T00:35:53.047Z,1.50
2023-05-07T00:38:56.391Z,1.40
2023-05-07T00:42:01.499Z,1.67
2023-05-07T00:45:05.217Z,1.80
2023-05-07T00:48:08.467Z,1.50
2023-05-07T00:51:12.697Z,1.57
2023-05-07T00:57:22.118Z,1.20
2023-05-07T01:00:26.121Z,1.60
2023-05-07T01:03:29.429Z,1.20
2023-05-07T01:06:35.210Z,1.50
2023-05-07T01:09:39.090Z,1.33
2023-05-07T01:12:44.545Z,1.27
2023-05-07T01:15:47.778Z,1.35
2023-05-07T01:18:51.164Z,1.15
2023-05-07T01:22:03.186Z,1.60
2023-05-07T01:25:09.625Z,1.30
2023-05-07T01:28:12.606Z,1.20
2023-05-07T01:31:16.176Z,1.30
2023-05-07T01:34:20.168Z,1.27
2023-05-07T01:37:24.439Z,1.27
2023-05-07T01:43:33.396Z,1.80
2023-05-07T01:46:36.735Z,1.80
2023-05-07T01:49:39.985Z,0.90
2023-05-07T01:52:43.234Z,1.00
2023-05-07T01:55:47.811Z,1.70
2023-05-07T01:58:52.129Z,1.42
2023-05-07T02:01:55.337Z,1.50
2023-05-07T02:04:58.872Z,1.53
2023-05-07T02:08:02.157Z,1.70
2023-05-07T02:11:07.562Z,1.00
2023-05-07T02:14:10.965Z,1.55
2023-05-07T02:17:14.132Z,1.50
2023-05-07T02:20:17.143Z,1.40
2023-05-07T02:23:20.294Z,1.20
2023-05-07T02:26:24.677Z,1.33
2023-05-07T02:29:27.709Z,1.80
2023-05-07T02:32:30.848Z,1.35
2023-05-07T02:35:33.909Z,1.55
2023-05-07T02:38:37.415Z,1.48
2023-05-07T02:41:42.815Z,1.25
2023-05-07T02:44:45.928Z,1.85
2023-05-07T02:47:48.968Z,1.65
2023-05-07T02:50:52.038Z,2.42
2023-05-07T02:53:55.129Z,1.50
2023-05-07T02:57:01.859Z,1.50
2023-05-07T03:00:13.206Z,1.48
2023-05-07T03:03:16.599Z,1.77
2023-05-07T03:06:20.006Z,1.50
2023-05-07T03:09:22.943Z,1.80
2023-05-07T03:12:27.399Z,1.30
2023-05-07T03:15:30.697Z,1.75
2023-05-07T03:18:33.733Z,1.43
2023-05-07T03:21:36.804Z,1.27
2023-05-07T03:24:39.789Z,1.40
2023-05-07T03:27:44.391Z,1.50
2023-05-07T03:30:47.658Z,1.65
2023-05-07T03:33:54.378Z,1.97
2023-05-07T03:36:57.448Z,1.85
2023-05-07T03:40:00.888Z,1.50
2023-05-07T03:43:05.372Z,1.70
2023-05-07T03:46:08.429Z,1.40
2023-05-07T03:49:11.672Z,1.52
2023-05-07T03:52:14.681Z,2.15
2023-05-07T03:55:17.701Z,1.80
2023-05-07T03:58:22.426Z,1.42
2023-05-07T04:01:25.927Z,1.65
2023-05-07T04:04:30.782Z,1.60
2023-05-07T04:07:33.824Z,1.40
2023-05-07T04:10:37.531Z,1.60
2023-05-07T04:13:42.132Z,1.35
2023-05-07T04:16:45.321Z,1.48
2023-05-07T04:19:48.414Z,1.45
2023-05-07T04:22:51.474Z,1.50
2023-05-07T04:25:55.411Z,1.55
2023-05-07T04:29:00.194Z,1.40
2023-05-07T04:32:03.669Z,1.30
2023-05-07T04:35:07.930Z,1.40
2023-05-07T04:41:14.812Z,0.90
2023-05-07T04:44:19.322Z,1.63
2023-05-07T04:47:22.692Z,1.40
2023-05-07T04:50:26.070Z,1.40
2023-05-07T04:53:29.125Z,1.40
2023-05-07T04:56:32.201Z,1.23
2023-05-07T04:59:36.682Z,1.30
2023-05-07T05:02:39.824Z,1.48
2023-05-07T05:05:42.866Z,1.70
2023-05-07T05:08:45.877Z,1.73
2023-05-07T05:11:49.167Z,1.42
2023-05-07T05:14:53.490Z,1.43
2023-05-07T05:17:56.516Z,1.30
2023-05-07T05:20:59.647Z,1.58
2023-05-07T05:24:03.205Z,1.52
2023-05-07T05:27:06.206Z,1.25
2023-05-07T05:30:32.724Z,1.63
2023-05-07T05:33:35.901Z,1.35
2023-05-07T05:36:38.903Z,1.33
2023-05-07T05:39:42.405Z,1.30
2023-05-07T05:42:45.672Z,1.27
2023-05-07T05:45:50.057Z,1.57
2023-05-07T05:48:52.988Z,1.60
2023-05-07T05:51:56.800Z,1.20
2023-05-07T05:54:59.907Z,1.38
2023-05-07T05:58:03.298Z,1.25
2023-05-07T06:01:07.656Z,1.60
2023-05-07T06:04:10.809Z,1.25
2023-05-07T06:07:14.112Z,1.30
2023-05-07T06:10:17.205Z,1.53
2023-05-07T06:13:20.224Z,1.40
2023-05-07T06:16:24.710Z,1.30
2023-05-07T06:19:29.065Z,1.35
2023-05-07T06:25:35.546Z,1.50
2023-05-07T06:28:38.577Z,1.77
2023-05-07T06:31:43.373Z,1.25
2023-05-07T06:34:46.665Z,1.40
2023-05-07T06:37:49.894Z,1.43
2023-05-07T06:40:55.139Z,1.55
2023-05-07T06:43:58.406Z,1.23
2023-05-07T06:47:02.903Z,1.27
2023-05-07T06:50:06.711Z,1.42
2023-05-07T06:53:09.774Z,1.42
2023-05-07T06:56:12.788Z,1.70
2023-05-07T06:59:15.988Z,1.40
2023-05-07T07:02:20.380Z,1.00
2023-05-07T07:05:23.457Z,2.00
2023-05-07T07:08:26.547Z,1.33
2023-05-07T07:11:29.655Z,1.55
2023-05-07T07:14:33.161Z,1.52
2023-05-07T07:17:37.914Z,1.80
2023-05-07T07:20:41.043Z,1.33
2023-05-07T07:23:44.349Z,1.60
2023-05-07T07:26:47.562Z,1.43
2023-05-07T07:29:50.611Z,1.50
2023-05-07T07:32:55.399Z,1.50
2023-05-07T07:35:58.661Z,1.40
2023-05-07T07:39:01.697Z,1.38
2023-05-07T07:42:05.190Z,1.75
2023-05-07T07:45:09.668Z,1.93
2023-05-07T07:48:14.077Z,1.90
2023-05-07T07:51:17.444Z,1.50
2023-05-07T07:54:20.436Z,2.00
2023-05-07T07:57:23.460Z,2.10
2023-05-07T08:00:26.637Z,1.63
2023-05-07T08:03:33.586Z,1.60
2023-05-07T08:06:36.904Z,1.40
2023-05-07T08:09:40.544Z,1.27
2023-05-07T08:12:43.521Z,1.75
2023-05-07T08:15:46.576Z,1.85
2023-05-07T08:18:51.373Z,1.63
2023-05-07T08:21:54.407Z,1.77
2023-05-07T08:25:17.447Z,1.40
2023-05-07T08:28:22.415Z,2.08
2023-05-07T08:32:29.448Z,1.45
2023-05-07T08:35:32.521Z,1.83
2023-05-07T08:38:35.539Z,1.85
2023-05-07T08:41:38.874Z,1.77
2023-05-07T08:44:43.397Z,1.60
2023-05-07T08:47:53.725Z,1.67
2023-05-07T08:50:57.205Z,2.28
2023-05-07T08:54:01.557Z,1.73
2023-05-07T08:57:04.871Z,2.00
2023-05-07T09:00:08.915Z,1.83
2023-05-07T09:03:13.751Z,2.35
2023-05-07T09:06:17.802Z,1.75
2023-05-07T09:09:21.053Z,1.63
2023-05-07T09:12:24.119Z,2.10
2023-05-07T09:15:50.075Z,2.08
2023-05-07T09:18:54.558Z,1.95
2023-05-07T09:22:01.691Z,2.05
2023-05-07T09:25:05.547Z,2.20
2023-05-07T09:28:11.135Z,2.85
2023-05-07T09:31:15.700Z,2.60
2023-05-07T09:34:18.721Z,2.58
2023-05-07T09:37:21.928Z,2.20
2023-05-07T09:40:25.919Z,2.50
2023-05-07T09:43:34.815Z,2.47
2023-05-07T09:46:41.393Z,2.38
2023-05-07T09:49:48.806Z,2.45
2023-05-07T09:52:52.056Z,2.60
2023-05-07T09:55:55.224Z,2.70
2023-05-07T09:59:01.385Z,2.70
2023-05-07T10:02:06.874Z,2.42
2023-05-07T10:05:11.382Z,2.55
2023-05-07T10:08:17.838Z,2.72
2023-05-07T10:11:21.521Z,2.88
2023-05-07T10:14:25.312Z,2.05
2023-05-07T10:17:30.059Z,2.13
2023-05-07T10:20:33.966Z,2.90
2023-05-07T10:23:37.548Z,2.67
2023-05-07T10:26:41.361Z,3.15
2023-05-07T10:29:53.129Z,2.90
2023-05-07T10:33:06.657Z,2.92
2023-05-07T10:36:10.293Z,3.20
2023-05-07T10:39:13.442Z,2.65
2023-05-07T10:42:17.444Z,3.53
2023-05-07T10:45:21.415Z,3.50
2023-05-07T10:48:30.315Z,3.47
2023-05-07T10:51:34.699Z,3.15
2023-05-07T10:54:37.962Z,3.65
2023-05-07T10:57:41.384Z,3.97
2023-05-07T11:00:45.569Z,3.80
2023-05-07T11:07:41.810Z,3.72
2023-05-07T11:10:53.125Z,3.78
2023-05-07T11:13:56.395Z,3.47
2023-05-07T11:17:04.307Z,3.57
2023-05-07T11:20:08.302Z,3.78
2023-05-07T11:23:52.110Z,3.60
2023-05-07T11:26:55.361Z,3.75
2023-05-07T11:29:58.580Z,3.60
2023-05-07T11:33:01.963Z,3.33
2023-05-07T11:36:06.556Z,4.03
2023-05-07T11:39:29.540Z,3.80
2023-05-07T11:42:33.548Z,3.33
2023-05-07T11:45:36.853Z,3.53
2023-05-07T11:48:40.473Z,4.17
2023-05-07T11:51:43.800Z,3.97
2023-05-07T11:54:52.525Z,3.80
2023-05-07T11:57:55.485Z,3.70
2023-05-07T12:00:58.674Z,4.38
2023-05-07T12:04:06.246Z,4.55
2023-05-07T12:07:14.358Z,4.20
2023-05-07T12:10:20.643Z,4.13
2023-05-07T12:13:25.865Z,3.42
2023-05-07T12:16:29.574Z,4.30
2023-05-07T12:19:33.070Z,3.33
2023-05-07T12:22:59.698Z,3.58
2023-05-07T12:26:04.997Z,3.50
2023-05-07T12:29:09.711Z,4.05
2023-05-07T12:32:16.453Z,3.75
2023-05-07T12:35:19.660Z,4.03
2023-05-07T12:38:24.668Z,3.30
2023-05-07T12:41:30.166Z,3.60
2023-05-07T12:44:34.447Z,3.53
2023-05-07T12:50:40.871Z,3.95
2023-05-07T12:53:45.583Z,3.20
2023-05-07T12:56:48.576Z,3.50
2023-05-07T12:59:51.850Z,2.53
2023-05-07T13:02:56.511Z,3.17
2023-05-07T13:06:01.296Z,2.60
2023-05-07T13:09:06.722Z,2.47
2023-05-07T13:12:09.799Z,3.10
2023-05-07T13:15:12.984Z,3.20
2023-05-07T13:18:16.585Z,3.23
2023-05-07T13:21:19.881Z,2.70
2023-05-07T13:24:24.316Z,2.60
2023-05-07T13:27:27.520Z,2.80
2023-05-07T13:30:30.886Z,2.78
2023-05-07T13:33:33.900Z,2.87
2023-05-07T13:36:38.221Z,3.10
2023-05-07T13:39:42.850Z,2.58
2023-05-07T13:42:45.928Z,3.05
2023-05-07T13:45:48.958Z,2.60
2023-05-07T13:48:52.434Z,2.83
2023-05-07T13:51:55.906Z,3.03
2023-05-07T13:55:00.622Z,2.57
2023-05-07T13:58:07.072Z,3.17
2023-05-07T14:01:10.697Z,2.88
2023-05-07T14:04:13.935Z,2.90
2023-05-07T14:07:17.028Z,2.85
2023-05-07T14:10:21.905Z,3.45
2023-05-07T14:13:24.963Z,3.63
2023-05-07T14:16:28.225Z,3.60
2023-05-07T14:19:33.936Z,3.60
2023-05-07T14:22:37.179Z,3.88
2023-05-07T14:25:42.132Z,3.45
2023-05-07T14:28:47.623Z,3.35
2023-05-07T14:31:50.711Z,3.50
2023-05-07T14:34:53.760Z,3.50
2023-05-07T14:37:56.697Z,2.78
2023-05-07T14:41:01.854Z,3.00
2023-05-07T14:44:05.379Z,2.85
2023-05-07T14:47:08.394Z,2.97
2023-05-07T14:50:11.751Z,3.28
2023-05-07T14:53:14.854Z,2.97
2023-05-07T14:56:19.774Z,3.03
2023-05-07T14:59:23.172Z,3.67
2023-05-07T15:02:26.961Z,3.07
2023-05-07T15:05:30.381Z,2.85
2023-05-07T15:08:33.388Z,2.70
2023-05-07T15:11:38.217Z,2.33
2023-05-07T15:14:41.625Z,2.63
2023-05-07T15:17:44.850Z,2.93
2023-05-07T15:20:48.030Z,2.37
2023-05-07T15:23:51.180Z,3.00
2023-05-07T15:26:55.644Z,2.38
2023-05-07T15:29:59.085Z,2.67
2023-05-07T15:33:03.493Z,3.03
2023-05-07T15:36:07.335Z,2.95
2023-05-07T15:39:11.112Z,2.78
2023-05-07T15:42:15.423Z,3.22
2023-05-07T15:48:21.380Z,2.40
2023-05-07T15:51:24.948Z,2.63
2023-05-07T15:54:28.153Z,2.17
2023-05-07T15:57:33.627Z,2.67
2023-05-07T16:00:37.138Z,2.70
2023-05-07T16:03:41.140Z,3.17
2023-05-07T16:09:50.788Z,2.90
2023-05-07T16:12:55.415Z,2.38
2023-05-07T16:15:59.248Z,2.55
2023-05-07T16:19:02.449Z,2.63
2023-05-07T16:22:05.579Z,2.60
2023-05-07T16:25:09.700Z,2.55
2023-05-07T16:31:18.655Z,2.38
2023-05-07T16:34:22.781Z,2.33
2023-05-07T16:40:29.045Z,2.13
2023-05-07T16:43:33.540Z,2.20
2023-05-07T16:46:36.635Z,2.47
2023-05-07T16:49:39.687Z,2.45
2023-05-07T16:52:43.413Z,2.50
2023-05-07T16:55:46.909Z,2.38
2023-05-07T16:58:51.571Z,2.17
2023-05-07T17:01:55.899Z,2.28
2023-05-07T17:04:59.851Z,2.13
2023-05-07T17:08:03.196Z,2.25
2023-05-07T17:11:06.358Z,2.23
2023-05-07T17:14:11.442Z,2.10
2023-05-07T17:17:14.535Z,2.40
2023-05-07T17:20:17.872Z,2.40
2023-05-07T17:23:20.980Z,2.43
2023-05-07T17:26:24.117Z,2.47
2023-05-07T17:29:28.785Z,2.10
2023-05-07T17:32:32.689Z,1.88
2023-05-07T17:35:35.887Z,2.60
2023-05-07T17:38:39.328Z,2.63
2023-05-07T17:41:42.386Z,1.93
2023-05-07T17:44:46.798Z,1.98
2023-05-07T17:47:49.973Z,1.92
2023-05-07T17:50:53.194Z,2.00
2023-05-07T17:53:56.608Z,2.25
2023-05-07T17:56:59.898Z,2.40
2023-05-07T18:00:07.058Z,1.63
2023-05-07T18:03:10.188Z,1.90
2023-05-07T18:06:18.859Z,2.10
2023-05-07T18:09:22.123Z,2.03
2023-05-07T18:12:26.938Z,1.90
2023-05-07T18:15:32.375Z,2.17
2023-05-07T18:18:35.736Z,2.47
2023-05-07T18:21:38.743Z,1.90
2023-05-07T18:24:41.734Z,1.95
2023-05-07T18:27:44.887Z,2.00
2023-05-07T18:30:49.238Z,2.15
2023-05-07T18:33:54.322Z,2.00
2023-05-07T18:36:57.880Z,2.00
2023-05-07T18:40:03.635Z,1.70
2023-05-07T18:43:07.268Z,2.45
2023-05-07T18:46:11.828Z,2.15
2023-05-07T18:49:15.031Z,1.92
2023-05-07T18:52:21.292Z,1.90
2023-05-07T18:55:25.236Z,2.30
2023-05-07T18:58:29.017Z,2.20
2023-05-07T19:01:33.585Z,2.25
2023-05-07T19:04:36.778Z,2.08
2023-05-07T19:07:39.912Z,2.03
2023-05-07T19:10:42.925Z,2.10
2023-05-07T19:13:46.118Z,2.25
2023-05-07T19:16:50.529Z,1.88
2023-05-07T19:19:53.807Z,2.20
2023-05-07T19:22:57.055Z,2.17
2023-05-07T19:26:00.372Z,2.10
2023-05-07T19:29:16.722Z,2.23
2023-05-07T19:32:22.677Z,2.25
2023-05-07T19:35:26.144Z,1.83
2023-05-07T19:38:29.619Z,1.73
2023-05-07T19:41:32.894Z,2.30
2023-05-07T19:44:35.963Z,1.90
2023-05-07T19:47:40.429Z,1.88
2023-05-07T19:50:43.802Z,2.13
2023-05-07T19:53:47.047Z,1.67
2023-05-07T19:56:50.639Z,1.50
2023-05-07T19:59:53.904Z,2.38
2023-05-07T20:02:58.764Z,1.80
2023-05-07T20:06:02.423Z,1.73
2023-05-07T20:09:07.369Z,1.45
2023-05-07T20:14:19.623Z,1.85
2023-05-07T20:17:22.763Z,1.60
2023-05-07T20:20:25.887Z,1.38
2023-05-07T20:23:29.220Z,1.95
2023-05-07T20:26:32.383Z,1.80
2023-05-07T20:29:36.825Z,1.45
2023-05-07T20:32:39.958Z,1.63
2023-05-07T20:36:03.448Z,1.65
2023-05-07T20:39:06.539Z,1.90
2023-05-07T20:42:09.613Z,2.03
2023-05-07T20:45:13.077Z,2.22
2023-05-07T20:48:16.390Z,1.63
2023-05-07T20:51:21.427Z,1.90
2023-05-07T20:54:28.232Z,2.08
2023-05-07T20:57:31.350Z,1.65
2023-05-07T21:00:34.388Z,1.90
2023-05-07T21:03:37.630Z,1.77
2023-05-07T21:06:42.535Z,1.95
2023-05-07T21:09:45.523Z,1.75
2023-05-07T21:12:48.569Z,1.67
2023-05-07T21:15:52.031Z,1.85
2023-05-07T21:18:55.100Z,2.00
2023-05-07T21:21:59.801Z,2.50
2023-05-07T21:25:03.161Z,1.52
2023-05-07T21:28:07.954Z,1.73
2023-05-07T21:31:11.737Z,1.80
2023-05-07T21:34:15.176Z,1.83
2023-05-07T21:37:19.793Z,2.43
2023-05-07T21:40:22.881Z,1.90
2023-05-07T21:43:25.903Z,1.98
2023-05-07T21:46:51.259Z,2.20
2023-05-07T21:49:54.354Z,1.88
2023-05-07T21:52:57.849Z,1.92
2023-05-07T21:56:02.371Z,2.00
2023-05-07T21:59:05.533Z,1.77
2023-05-07T22:02:10.100Z,2.03
2023-05-07T22:05:13.709Z,1.90
2023-05-07T22:08:16.817Z,2.05
2023-05-07T22:11:19.930Z,1.98
2023-05-07T22:14:23.797Z,1.65
2023-05-07T22:17:28.439Z,2.40
2023-05-07T22:20:31.636Z,2.10
2023-05-07T22:23:34.737Z,1.80
2023-05-07T22:26:37.974Z,1.90
2023-05-07T22:29:41.045Z,1.92
2023-05-07T22:32:46.117Z,2.08
2023-05-07T22:35:49.228Z,1.77
2023-05-07T22:38:52.571Z,2.00
2023-05-07T22:41:55.902Z,1.97
2023-05-07T22:44:59.391Z,1.90
2023-05-07T22:48:04.497Z,2.07
2023-05-07T22:51:07.724Z,1.77
2023-05-07T22:54:11.177Z,2.42
2023-05-07T22:57:14.656Z,2.27
2023-05-07T23:00:17.926Z,1.73
2023-05-07T23:03:22.458Z,2.40
2023-05-07T23:06:43.864Z,1.92
2023-05-07T23:09:47.128Z,2.45
2023-05-07T23:12:50.210Z,2.10
2023-05-07T23:15:53.547Z,2.10
2023-05-07T23:18:56.742Z,1.98
2023-05-07T23:22:01.143Z,2.20
2023-05-07T23:25:04.446Z,2.42
2023-05-07T23:28:07.435Z,2.30
2023-05-07T23:31:12.576Z,2.28
2023-05-07T23:34:16.132Z,2.03
2023-05-07T23:37:39.176Z,2.30
2023-05-07T23:40:42.431Z,2.10
2023-05-07T23:43:45.598Z,2.47
2023-05-07T23:46:48.653Z,1.70
2023-05-07T23:49:51.772Z,2.15
2023-05-07T23:52:56.042Z,2.85
2023-05-07T23:59:02.578Z,2.15
